Time;durP1;ratioP1;P1;durP2;ratioP2;P2;SDS_P1;SDS_P2;PMS_P1;PMS_P2;Temp;Humidity;BMP_temperature;BMP_pressure;BME280_temperature;BME280_humidity;BME280_pressure;Samples;Min_cycle;Max_cycle;Signal;HPM_P1;HPM_P2
2021/08/10 00:00:09;;;;;;;14.77;7.22;;;;;;;14.35;100.00;101368.59;1048726;28;20056;-79
2021/08/10 00:00:41;;;;;;;11.80;7.20;;;;;;;14.32;100.00;101373.75;1048328;28;20045;-79
2021/08/10 00:01:13;;;;;;;8.73;6.28;;;;;;;14.33;100.00;101371.16;1048526;28;20055;-79
2021/08/10 00:01:44;;;;;;;10.65;7.07;;;;;;;14.34;100.00;101366.81;1052827;28;20048;-79
2021/08/10 00:02:16;;;;;;;9.32;6.80;;;;;;;14.31;100.00;101369.44;1052376;28;20428;-79
2021/08/10 00:02:48;;;;;;;10.02;6.68;;;;;;;14.33;100.00;101371.16;1053023;28;20135;-78
2021/08/10 00:03:20;;;;;;;10.30;7.80;;;;;;;14.32;100.00;101366.81;1052534;28;20040;-78
2021/08/10 00:03:53;;;;;;;8.10;6.43;;;;;;;14.34;100.00;101377.25;1053075;28;20055;-79
2021/08/10 00:04:25;;;;;;;9.88;6.90;;;;;;;14.34;100.00;101372.03;1050608;28;20048;-79
2021/08/10 00:04:56;;;;;;;10.48;7.15;;;;;;;14.35;100.00;101372.91;1052515;28;20048;-78
2021/08/10 00:05:28;;;;;;;8.90;7.38;;;;;;;14.33;100.00;101371.16;1048170;28;20497;-78
2021/08/10 00:05:59;;;;;;;9.23;6.50;;;;;;;14.35;100.00;101371.19;1044491;28;20083;-78
2021/08/10 00:06:31;;;;;;;11.02;7.13;;;;;;;14.34;100.00;101359.03;1044506;28;20060;-79
2021/08/10 00:07:03;;;;;;;10.85;6.90;;;;;;;14.31;100.00;101375.50;1048825;28;20044;-78
2021/08/10 00:07:34;;;;;;;9.45;7.20;;;;;;;14.29;100.00;101369.41;1048306;28;20053;-79
2021/08/10 00:08:06;;;;;;;11.35;7.28;;;;;;;14.31;100.00;101370.28;1049662;28;20051;-79
2021/08/10 00:08:38;;;;;;;9.27;6.85;;;;;;;14.26;100.00;101371.97;1053935;28;20044;-79
2021/08/10 00:09:09;;;;;;;12.02;6.95;;;;;;;14.29;100.00;101363.31;1062290;27;20387;-78
2021/08/10 00:09:40;;;;;;;9.60;6.97;;;;;;;14.32;100.00;101371.16;1061298;27;20043;-79
2021/08/10 00:10:12;;;;;;;10.27;7.10;;;;;;;14.32;100.00;101365.97;1057407;28;20047;-78
2021/08/10 00:10:44;;;;;;;9.00;7.47;;;;;;;14.30;100.00;101362.47;1057982;27;20047;-78
2021/08/10 00:11:16;;;;;;;15.73;7.50;;;;;;;14.27;100.00;101362.44;1053276;28;20515;-79
2021/08/10 00:11:47;;;;;;;7.93;7.10;;;;;;;14.25;100.00;101366.78;1049039;28;20059;-79
2021/08/10 00:12:20;;;;;;;10.13;7.05;;;;;;;14.26;100.00;101366.78;1049000;28;20045;-78
2021/08/10 00:12:53;;;;;;;10.60;7.60;;;;;;;14.27;100.00;101368.50;1049131;28;20052;-78
2021/08/10 00:13:25;;;;;;;10.30;7.25;;;;;;;14.24;100.00;101365.91;1045814;28;20048;-78
2021/08/10 00:13:57;;;;;;;9.15;6.47;;;;;;;14.26;100.00;101366.78;1049146;28;20052;-78
2021/08/10 00:14:29;;;;;;;8.50;7.22;;;;;;;14.23;100.00;101365.88;1049565;28;20059;-77
2021/08/10 00:15:01;;;;;;;10.32;7.57;;;;;;;14.23;100.00;101365.88;1053880;28;20523;-79
2021/08/10 00:15:32;;;;;;;7.97;5.97;;;;;;;14.26;100.00;101371.13;1053548;28;20052;-80
2021/08/10 00:16:04;;;;;;;7.93;6.88;;;;;;;14.25;100.00;101369.38;1057700;28;20044;-79
2021/08/10 00:16:37;;;;;;;9.10;7.15;;;;;;;14.25;100.00;101369.38;1053320;28;20468;-79
2021/08/10 00:17:08;;;;;;;10.90;7.10;;;;;;;14.19;100.00;101367.59;1053881;28;20059;-79
2021/08/10 00:17:40;;;;;;;9.95;7.68;;;;;;;14.21;100.00;101370.19;1057390;28;20048;-80
2021/08/10 00:18:12;;;;;;;10.45;7.55;;;;;;;14.24;100.00;101365.03;1057586;28;20492;-80
2021/08/10 00:18:43;;;;;;;8.00;7.15;;;;;;;14.20;100.00;101363.25;1057629;28;20435;-79
2021/08/10 00:19:15;;;;;;;10.70;7.13;;;;;;;14.16;100.00;101362.34;1053318;28;20404;-79
2021/08/10 00:19:46;;;;;;;9.10;7.65;;;;;;;14.17;100.00;101363.22;1049097;28;20515;-79
2021/08/10 00:20:18;;;;;;;9.05;7.45;;;;;;;14.18;100.00;101368.47;1048974;28;20436;-79
2021/08/10 00:20:50;;;;;;;11.32;7.72;;;;;;;14.17;100.00;101369.28;1049210;28;20060;-79
2021/08/10 00:21:22;;;;;;;13.02;7.55;;;;;;;14.18;100.00;101363.25;1049521;28;20053;-79
2021/08/10 00:21:53;;;;;;;12.02;7.43;;;;;;;14.14;100.00;101366.69;1049018;28;20067;-79
2021/08/10 00:22:25;;;;;;;11.50;7.55;;;;;;;14.15;100.00;101364.94;1049615;28;20053;-79
2021/08/10 00:22:56;;;;;;;9.90;6.93;;;;;;;14.19;100.00;101369.31;1053740;28;20055;-79
2021/08/10 00:23:28;;;;;;;8.70;7.57;;;;;;;14.17;100.00;101365.81;1057562;28;20464;-79
2021/08/10 00:23:59;;;;;;;7.93;7.18;;;;;;;14.15;100.00;101367.56;1060681;27;20047;-78
2021/08/10 00:24:31;;;;;;;11.05;7.75;;;;;;;14.15;100.00;101363.22;1059650;27;20047;-78
2021/08/10 00:25:03;;;;;;;10.52;7.75;;;;;;;14.15;100.00;101367.56;1056869;28;20047;-79
2021/08/10 00:25:35;;;;;;;9.45;7.40;;;;;;;14.17;100.00;101373.63;1053264;28;20477;-79
2021/08/10 00:26:06;;;;;;;8.27;7.47;;;;;;;14.15;100.00;101367.56;1053690;28;20389;-80
2021/08/10 00:26:38;;;;;;;10.30;7.40;;;;;;;14.17;100.00;101363.22;1057308;28;20126;-79
2021/08/10 00:27:09;;;;;;;12.23;8.00;;;;;;;14.13;100.00;101362.34;1053215;28;20044;-79
2021/08/10 00:27:40;;;;;;;9.30;7.78;;;;;;;14.13;100.00;101364.94;1045458;28;20048;-80
2021/08/10 00:28:12;;;;;;;9.15;7.18;;;;;;;14.15;100.00;101368.41;1049107;28;20045;-79
2021/08/10 00:28:43;;;;;;;12.60;8.35;;;;;;;14.15;100.00;101367.56;1047457;28;20048;-79
2021/08/10 00:29:15;;;;;;;16.05;8.05;;;;;;;14.12;100.00;101370.13;1049479;28;20056;-78
2021/08/10 00:29:46;;;;;;;11.38;7.53;;;;;;;14.15;100.00;101365.81;1053234;28;20048;-78
2021/08/10 00:30:18;;;;;;;10.23;7.65;;;;;;;14.15;100.00;101365.81;1053152;28;20059;-78
2021/08/10 00:30:49;;;;;;;9.38;7.15;;;;;;;14.14;100.00;101366.69;1049432;28;20497;-79
2021/08/10 00:31:21;;;;;;;10.55;7.30;;;;;;;14.11;100.00;101360.56;1048899;28;20111;-79
2021/08/10 00:31:53;;;;;;;8.50;6.95;;;;;;;14.13;100.00;101362.34;1049543;28;20481;-79
2021/08/10 00:32:25;;;;;;;12.15;8.48;;;;;;;14.12;100.00;101360.56;1053707;28;20476;-79
2021/08/10 00:32:57;;;;;;;9.57;8.35;;;;;;;14.09;100.00;101357.09;1053124;28;20055;-78
2021/08/10 00:33:28;;;;;;;8.18;7.38;;;;;;;14.09;100.00;101355.34;1053158;28;20047;-79
2021/08/10 00:34:00;;;;;;;10.73;8.57;;;;;;;14.10;100.00;101359.69;1053997;28;20048;-79
2021/08/10 00:34:31;;;;;;;9.82;7.75;;;;;;;14.09;100.00;101354.50;1057213;28;20423;-80
2021/08/10 00:35:03;;;;;;;10.07;7.63;;;;;;;14.09;100.00;101368.38;1057210;28;20043;-79
2021/08/10 00:35:35;;;;;;;11.45;8.70;;;;;;;14.09;100.00;101359.69;1053532;28;20051;-79
2021/08/10 00:36:06;;;;;;;12.80;7.35;;;;;;;14.06;100.00;101358.78;1057504;28;20055;-78
2021/08/10 00:36:38;;;;;;;7.85;6.65;;;;;;;14.09;100.00;101357.09;1057390;28;20674;-79
2021/08/10 00:37:09;;;;;;;10.20;7.28;;;;;;;14.06;100.00;101357.91;1057373;28;20404;-78
2021/08/10 00:37:42;;;;;;;9.48;7.53;;;;;;;14.07;100.00;101357.09;1057446;28;20589;-79
2021/08/10 00:38:14;;;;;;;10.45;7.53;;;;;;;14.09;100.00;101362.28;1053094;28;20044;-79
2021/08/10 00:38:45;;;;;;;9.07;7.80;;;;;;;14.05;100.00;101364.84;1049020;28;20381;-78
2021/08/10 00:39:17;;;;;;;10.00;7.70;;;;;;;14.03;100.00;101358.78;1049604;28;20061;-79
2021/08/10 00:39:48;;;;;;;8.07;7.10;;;;;;;14.06;100.00;101358.78;1049542;28;20044;-79
2021/08/10 00:40:20;;;;;;;9.05;8.00;;;;;;;14.04;100.00;101357.91;1048950;28;20051;-79
2021/08/10 00:40:54;;;;;;;11.43;7.28;;;;;;;14.05;100.00;101372.66;1048959;28;20048;-79
2021/08/10 00:41:25;;;;;;;8.95;7.18;;;;;;;14.05;100.00;101366.59;1045558;28;20505;-79
2021/08/10 00:41:57;;;;;;;9.25;7.60;;;;;;;14.06;100.00;101361.38;1053848;28;20052;-78
2021/08/10 00:42:28;;;;;;;10.77;7.45;;;;;;;14.06;100.00;101361.38;1053307;28;20048;-78
2021/08/10 00:43:01;;;;;;;9.02;7.15;;;;;;;14.06;100.00;101358.78;1053854;28;20048;-78
2021/08/10 00:43:38;;;;;;;10.45;8.23;;;;;;;14.09;100.00;101359.69;1053114;28;20044;-79
2021/08/10 00:44:10;;;;;;;9.48;7.50;;;;;;;14.06;100.00;101364.00;1049018;28;20048;-79
2021/08/10 00:44:42;;;;;;;8.15;7.07;;;;;;;14.07;100.00;101364.91;1050173;28;20052;-79
2021/08/10 00:45:13;;;;;;;10.40;6.93;;;;;;;14.08;100.00;101357.97;1050261;28;20055;-78
2021/08/10 00:45:45;;;;;;;10.13;7.93;;;;;;;14.09;100.00;101359.69;1053536;28;20044;-78
2021/08/10 00:46:16;;;;;;;8.80;7.55;;;;;;;14.07;100.00;101362.28;1053179;28;20044;-78
2021/08/10 00:46:48;;;;;;;11.90;8.07;;;;;;;14.03;100.00;101363.97;1053396;28;20515;-78
2021/08/10 00:47:19;;;;;;;10.77;6.85;;;;;;;14.08;100.00;101365.75;1053143;28;20047;-79
2021/08/10 00:47:51;;;;;;;10.35;7.40;;;;;;;14.04;100.00;101363.13;1049062;28;20052;-78
2021/08/10 00:48:23;;;;;;;12.05;7.78;;;;;;;14.07;100.00;101364.91;1049562;28;20436;-79
2021/08/10 00:48:54;;;;;;;8.38;7.53;;;;;;;14.08;100.00;101365.75;1053422;28;20095;-77
2021/08/10 00:49:26;;;;;;;12.90;8.35;;;;;;;14.05;100.00;101362.25;1057320;28;20043;-78
2021/08/10 00:49:57;;;;;;;9.77;7.25;;;;;;;14.05;100.00;101364.00;1057511;27;20495;-78
2021/08/10 00:50:28;;;;;;;8.60;6.70;;;;;;;14.03;100.00;101366.59;1057574;28;20067;-79
2021/08/10 00:51:00;;;;;;;14.13;8.02;;;;;;;14.06;100.00;101370.94;1057317;28;20476;-78
2021/08/10 00:51:32;;;;;;;11.32;7.60;;;;;;;14.08;100.00;101366.63;1057252;28;20052;-79
2021/08/10 00:52:04;;;;;;;12.13;8.00;;;;;;;14.06;100.00;101364.00;1057285;28;20051;-79
2021/08/10 00:52:36;;;;;;;10.77;7.72;;;;;;;14.08;100.00;101363.16;1057429;28;20506;-79
2021/08/10 00:53:07;;;;;;;7.97;7.15;;;;;;;14.08;100.00;101364.03;1057277;28;20055;-79
2021/08/10 00:53:39;;;;;;;8.63;7.72;;;;;;;14.06;100.00;101365.72;1053050;28;20048;-79
2021/08/10 00:54:11;;;;;;;9.85;6.93;;;;;;;14.05;100.00;101362.25;1049745;28;20385;-78
2021/08/10 00:54:43;;;;;;;7.93;6.70;;;;;;;14.01;100.00;101363.09;1052796;28;20074;-79
2021/08/10 00:55:15;;;;;;;10.18;7.10;;;;;;;14.02;100.00;101364.84;1048625;28;20053;-79
2021/08/10 00:55:46;;;;;;;12.32;8.35;;;;;;;14.03;100.00;101365.72;1045330;28;20049;-79
2021/08/10 00:56:18;;;;;;;7.95;7.13;;;;;;;14.04;100.00;101364.84;1049318;28;20488;-79
2021/08/10 00:56:52;;;;;;;9.57;7.43;;;;;;;14.05;100.00;101369.19;1053552;28;20040;-79
2021/08/10 00:57:24;;;;;;;11.00;8.18;;;;;;;14.06;100.00;101371.78;1053126;28;20403;-78
2021/08/10 00:57:55;;;;;;;10.40;7.63;;;;;;;14.07;100.00;101364.91;1055504;28;20044;-79
2021/08/10 00:58:26;;;;;;;10.05;7.43;;;;;;;14.03;100.00;101361.38;1053160;28;20055;-78
2021/08/10 00:59:00;;;;;;;10.20;7.57;;;;;;;14.04;100.00;101360.50;1052898;28;20052;-79
2021/08/10 00:59:31;;;;;;;11.25;7.72;;;;;;;14.03;100.00;101363.97;1053026;28;20060;-78
2021/08/10 01:00:04;;;;;;;12.30;8.02;;;;;;;14.02;100.00;101363.97;1049674;28;20049;-79
2021/08/10 01:00:36;;;;;;;11.95;8.23;;;;;;;14.03;100.00;101366.59;1048714;28;20123;-79
2021/08/10 01:01:08;;;;;;;9.88;8.02;;;;;;;14.00;100.00;101357.88;1049680;28;20071;-77
2021/08/10 01:01:40;;;;;;;9.57;7.32;;;;;;;14.02;100.00;101361.38;1049828;28;20466;-78
2021/08/10 01:02:12;;;;;;;9.27;7.28;;;;;;;14.04;100.00;101368.31;1053756;28;20538;-78
2021/08/10 01:02:43;;;;;;;9.00;7.63;;;;;;;14.01;100.00;101354.41;1053065;28;20435;-79
2021/08/10 01:03:15;;;;;;;9.02;7.78;;;;;;;14.04;100.00;101359.66;1053185;28;20123;-79
2021/08/10 01:03:47;;;;;;;9.57;7.57;;;;;;;14.01;100.00;101359.59;1053078;28;20069;-79
2021/08/10 01:04:19;;;;;;;9.13;7.65;;;;;;;14.01;100.00;101363.09;1049307;28;20059;-79
2021/08/10 01:04:50;;;;;;;10.77;8.02;;;;;;;14.02;100.00;101359.63;1049510;28;20052;-79
2021/08/10 01:05:22;;;;;;;9.48;7.22;;;;;;;13.99;100.00;101361.34;1053112;28;20454;-79
2021/08/10 01:05:54;;;;;;;9.55;7.00;;;;;;;13.99;100.00;101367.41;1053694;28;20040;-79
2021/08/10 01:06:43;;;;;;;8.43;7.60;;;;;;;14.03;100.00;101361.38;1053390;28;20055;-79
2021/08/10 01:07:26;;;;;;;9.05;7.53;;;;;;;14.02;100.00;101357.03;1053101;28;20048;-79
2021/08/10 01:08:02;;;;;;;9.90;7.63;;;;;;;14.04;100.00;101363.13;1044814;28;20507;-79
2021/08/10 01:09:06;;;;;;;10.32;8.10;;;;;;;14.01;100.00;101357.00;1048813;28;20048;-79
2021/08/10 01:10:02;;;;;;;9.65;7.38;;;;;;;14.00;100.00;101352.66;1049988;28;20049;-79
2021/08/10 01:10:39;;;;;;;8.23;7.15;;;;;;;13.98;100.00;101352.66;1053051;28;20040;-79
2021/08/10 01:11:16;;;;;;;10.60;7.80;;;;;;;13.99;100.00;101351.78;1049146;28;20048;-80
2021/08/10 01:12:13;;;;;;;9.30;7.97;;;;;;;14.01;100.00;101355.31;1048734;28;20543;-78
2021/08/10 01:13:05;;;;;;;11.13;8.40;;;;;;;14.02;100.00;101357.03;1045155;28;20056;-78
2021/08/10 01:13:40;;;;;;;10.55;7.53;;;;;;;13.99;100.00;101359.59;1054869;28;20044;-79
2021/08/10 01:14:15;;;;;;;9.00;7.40;;;;;;;13.96;100.00;101359.59;1053013;28;20047;-77
2021/08/10 01:15:03;;;;;;;8.95;8.07;;;;;;;13.95;100.00;101364.75;1053071;28;20098;-80
2021/08/10 01:15:58;;;;;;;11.57;8.88;;;;;;;13.95;100.00;101360.41;1052598;28;20071;-79
2021/08/10 01:16:40;;;;;;;12.00;8.60;;;;;;;13.99;100.00;101357.00;1054935;28;20127;-78
2021/08/10 01:17:27;;;;;;;10.65;8.45;;;;;;;13.96;100.00;101356.13;1052946;28;20056;-80
2021/08/10 01:18:04;;;;;;;12.80;8.00;;;;;;;13.94;100.00;101356.09;1048771;28;20044;-79
2021/08/10 01:18:50;;;;;;;9.90;7.57;;;;;;;13.97;100.00;101363.06;1052982;28;20071;-79
2021/08/10 01:19:33;;;;;;;12.57;7.93;;;;;;;13.94;100.00;101357.81;1049478;28;20048;-80
2021/08/10 01:20:51;;;;;;;11.05;8.52;;;;;;;13.93;100.00;101364.75;1048839;28;20052;-78
2021/08/10 01:21:32;;;;;;;13.35;7.57;;;;;;;13.97;100.00;101363.06;1052864;28;20055;-79
2021/08/10 01:22:06;;;;;;;10.20;8.18;;;;;;;13.93;100.00;101364.75;1056807;28;20419;-79
2021/08/10 01:22:44;;;;;;;13.68;8.68;;;;;;;13.92;100.00;101360.41;1052937;28;20453;-79
2021/08/10 01:23:21;;;;;;;9.82;7.70;;;;;;;13.94;100.00;101363.00;1052957;28;20044;-80
2021/08/10 01:24:04;;;;;;;9.95;7.63;;;;;;;13.95;100.00;101360.41;1055450;28;20051;-80
2021/08/10 01:24:44;;;;;;;13.45;7.63;;;;;;;13.96;100.00;101366.53;1056737;28;20101;-80
2021/08/10 01:26:11;;;;;;;8.65;7.28;;;;;;;13.94;100.00;101357.81;1057314;28;20058;-79
2021/08/10 01:26:48;;;;;;;10.55;8.05;;;;;;;13.93;100.00;101353.47;1040271;28;20053;-81
2021/08/10 01:27:37;;;;;;;10.68;7.07;;;;;;;13.98;100.00;101351.78;1040316;28;20049;-80
2021/08/10 01:28:26;;;;;;;12.85;7.72;;;;;;;13.97;100.00;101355.25;1036347;28;20430;-79
2021/08/10 01:29:08;;;;;;;9.40;7.93;;;;;;;13.99;100.00;101356.13;1033413;28;20050;-79
2021/08/10 01:29:43;;;;;;;8.55;7.68;;;;;;;13.98;100.00;101357.88;1048765;28;20071;-79
2021/08/10 01:30:23;;;;;;;8.82;7.50;;;;;;;13.96;100.00;101351.78;1052896;28;20476;-79
2021/08/10 01:31:07;;;;;;;10.30;8.32;;;;;;;13.96;100.00;101357.00;1048624;28;20048;-80
2021/08/10 01:31:43;;;;;;;10.00;8.10;;;;;;;13.94;100.00;101350.00;1052430;28;20048;-79
2021/08/10 01:32:15;;;;;;;11.50;8.15;;;;;;;13.96;100.00;101356.13;1052816;28;20048;-79
2021/08/10 01:32:48;;;;;;;9.93;7.95;;;;;;;13.98;100.00;101355.25;1048783;28;20055;-79
2021/08/10 01:33:22;;;;;;;10.80;7.75;;;;;;;13.97;100.00;101353.53;1050381;28;20127;-79
2021/08/10 01:33:58;;;;;;;11.95;8.63;;;;;;;13.98;100.00;101347.47;1057061;28;20439;-79
2021/08/10 01:34:40;;;;;;;11.57;8.90;;;;;;;13.97;100.00;101345.72;1057205;28;20055;-80
2021/08/10 01:35:13;;;;;;;11.45;8.32;;;;;;;13.99;100.00;101350.94;1057047;28;20062;-79
2021/08/10 01:35:46;;;;;;;11.00;8.43;;;;;;;14.00;100.00;101352.66;1057151;28;20054;-79
2021/08/10 01:36:21;;;;;;;13.90;8.35;;;;;;;13.97;100.00;101347.44;1052849;28;20055;-79
2021/08/10 01:36:57;;;;;;;9.23;7.80;;;;;;;13.96;100.00;101354.38;1048785;28;20412;-77
2021/08/10 01:37:31;;;;;;;13.27;7.93;;;;;;;13.97;100.00;101355.25;1046374;28;20049;-79
2021/08/10 01:38:05;;;;;;;14.18;8.48;;;;;;;13.96;100.00;101350.91;1050777;28;20051;-78
2021/08/10 01:38:39;;;;;;;10.25;7.30;;;;;;;13.99;100.00;101350.94;1052961;28;20044;-79
2021/08/10 01:39:13;;;;;;;10.85;8.73;;;;;;;13.96;100.00;101346.59;1052817;28;20052;-79
2021/08/10 01:39:47;;;;;;;11.85;8.27;;;;;;;13.95;100.00;101355.22;1048763;28;20049;-80
2021/08/10 01:40:19;;;;;;;13.75;8.65;;;;;;;13.97;100.00;101350.06;1050079;28;20045;-79
2021/08/10 01:40:52;;;;;;;9.95;7.68;;;;;;;13.99;100.00;101354.41;1052806;28;20048;-79
2021/08/10 01:41:25;;;;;;;10.48;8.50;;;;;;;13.98;100.00;101349.19;1052951;28;20473;-79
2021/08/10 01:41:58;;;;;;;14.75;8.93;;;;;;;13.96;100.00;101353.53;1053782;28;20055;-79
2021/08/10 01:42:32;;;;;;;10.85;9.05;;;;;;;13.95;100.00;101344.81;1057113;28;20415;-79
2021/08/10 01:43:04;;;;;;;10.30;8.32;;;;;;;13.93;100.00;101346.53;1057092;28;20840;-78
2021/08/10 01:43:38;;;;;;;12.57;8.85;;;;;;;13.98;100.00;101346.59;1052800;28;20052;-80
2021/08/10 01:44:11;;;;;;;11.55;8.88;;;;;;;14.00;100.00;101345.72;1048692;28;20052;-80
2021/08/10 01:44:44;;;;;;;12.55;8.65;;;;;;;14.02;100.00;101350.97;1048742;28;20048;-80
2021/08/10 01:45:17;;;;;;;10.95;8.02;;;;;;;13.98;100.00;101344.00;1049911;28;20044;-79
2021/08/10 01:45:50;;;;;;;11.57;7.65;;;;;;;13.97;100.00;101343.13;1048803;28;20052;-80
2021/08/10 01:46:23;;;;;;;10.57;8.50;;;;;;;13.96;100.00;101346.59;1052821;28;20480;-80
2021/08/10 01:46:57;;;;;;;13.55;9.02;;;;;;;13.96;100.00;101340.50;1057182;28;20087;-79
2021/08/10 01:47:30;;;;;;;10.05;8.13;;;;;;;13.96;100.00;101337.91;1052739;28;20059;-78
2021/08/10 01:48:02;;;;;;;11.32;8.45;;;;;;;13.94;100.00;101331.81;1050006;28;20044;-79
2021/08/10 01:48:35;;;;;;;15.68;8.60;;;;;;;13.96;100.00;101340.50;1052856;28;20044;-79
2021/08/10 01:49:07;;;;;;;10.43;8.30;;;;;;;14.00;100.00;101342.25;1049606;28;20048;-79
2021/08/10 01:49:40;;;;;;;15.02;9.52;;;;;;;13.96;100.00;101338.78;1045656;28;20048;-79
2021/08/10 01:50:12;;;;;;;11.98;8.98;;;;;;;13.94;100.00;101335.28;1048553;28;20740;-80
2021/08/10 01:50:45;;;;;;;12.57;9.13;;;;;;;13.98;100.00;101336.19;1049545;28;20485;-78
2021/08/10 01:51:19;;;;;;;11.82;8.45;;;;;;;14.00;100.00;101331.84;1053772;28;20492;-79
2021/08/10 01:51:53;;;;;;;12.40;9.23;;;;;;;14.00;100.00;101337.06;1052931;28;20052;-79
2021/08/10 01:52:26;;;;;;;15.20;9.45;;;;;;;13.99;100.00;101337.91;1052926;28;20059;-79
2021/08/10 01:52:58;;;;;;;14.55;9.32;;;;;;;13.99;100.00;101341.38;1052878;28;20045;-79
2021/08/10 01:53:30;;;;;;;11.02;9.02;;;;;;;13.99;100.00;101336.19;1048557;28;20059;-78
2021/08/10 01:54:04;;;;;;;12.10;9.52;;;;;;;14.00;100.00;101337.06;1048780;28;20044;-79
2021/08/10 01:54:37;;;;;;;14.80;9.07;;;;;;;13.97;100.00;101331.84;1046265;28;20045;-78
2021/08/10 01:55:10;;;;;;;10.35;8.45;;;;;;;14.02;100.00;101335.34;1049556;28;20056;-78
2021/08/10 01:55:42;;;;;;;11.38;8.40;;;;;;;14.00;100.00;101337.91;1048568;28;20042;-78
2021/08/10 01:56:14;;;;;;;13.07;8.57;;;;;;;14.02;100.00;101337.97;1049657;28;20401;-77
2021/08/10 01:56:46;;;;;;;9.38;7.82;;;;;;;13.98;100.00;101336.19;1053616;28;20048;-78
2021/08/10 01:57:18;;;;;;;12.07;9.13;;;;;;;13.95;100.00;101339.59;1053379;28;20495;-79
2021/08/10 01:57:50;;;;;;;11.38;8.02;;;;;;;13.97;100.00;101334.44;1052779;28;20051;-78
2021/08/10 01:58:22;;;;;;;11.98;8.95;;;;;;;13.98;100.00;101338.78;1052849;28;20055;-78
2021/08/10 01:58:57;;;;;;;12.07;8.57;;;;;;;13.96;100.00;101335.31;1049262;28;20052;-79
2021/08/10 01:59:30;;;;;;;12.05;8.05;;;;;;;13.98;100.00;101347.47;1049642;28;20045;-78
2021/08/10 02:00:04;;;;;;;10.73;7.72;;;;;;;13.99;100.00;101346.59;1048594;28;20432;-78
2021/08/10 02:00:36;;;;;;;11.43;8.07;;;;;;;14.01;100.00;101344.91;1045892;28;20049;-78
2021/08/10 02:01:08;;;;;;;11.45;9.10;;;;;;;14.01;100.00;101350.09;1049764;28;20048;-80
2021/08/10 02:01:42;;;;;;;9.50;8.48;;;;;;;14.02;100.00;101349.22;1049543;28;20060;-79
2021/08/10 02:02:15;;;;;;;11.02;7.72;;;;;;;14.04;100.00;101360.50;1049744;28;20412;-78
2021/08/10 02:02:47;;;;;;;10.90;8.50;;;;;;;14.05;100.00;101351.84;1056866;28;20051;-78
2021/08/10 02:03:21;;;;;;;10.65;7.93;;;;;;;14.05;100.00;101358.78;1057142;28;20048;-78
2021/08/10 02:03:54;;;;;;;13.68;8.63;;;;;;;14.04;100.00;101352.72;1058590;27;20213;-79
2021/08/10 02:04:26;;;;;;;11.80;8.95;;;;;;;14.04;100.00;101354.44;1055842;28;20051;-79
2021/08/10 02:04:59;;;;;;;10.10;8.40;;;;;;;14.08;100.00;101356.22;1053747;28;20052;-78
2021/08/10 02:05:31;;;;;;;14.85;9.35;;;;;;;14.09;100.00;101354.50;1056927;28;20051;-78
2021/08/10 02:06:03;;;;;;;11.05;8.27;;;;;;;14.08;100.00;101356.22;1056748;28;20048;-79
2021/08/10 02:06:37;;;;;;;11.73;8.90;;;;;;;14.06;100.00;101358.78;1052673;28;20055;-78
2021/08/10 02:07:09;;;;;;;13.48;8.70;;;;;;;14.08;100.00;101356.22;1049390;28;20048;-79
2021/08/10 02:07:42;;;;;;;13.25;9.07;;;;;;;14.10;100.00;101358.84;1052662;28;20055;-79
2021/08/10 02:08:14;;;;;;;10.02;8.43;;;;;;;14.07;100.00;101349.28;1053844;28;20048;-79
2021/08/10 02:08:48;;;;;;;10.65;7.63;;;;;;;14.09;100.00;101344.94;1053562;28;20048;-78
2021/08/10 02:09:20;;;;;;;10.60;7.65;;;;;;;14.08;100.00;101347.56;1052621;28;20052;-78
2021/08/10 02:09:54;;;;;;;10.27;7.75;;;;;;;14.08;100.00;101342.34;1048568;28;20052;-79
2021/08/10 02:10:28;;;;;;;10.82;8.18;;;;;;;14.07;100.00;101346.69;1049829;28;20048;-79
2021/08/10 02:11:00;;;;;;;9.80;7.13;;;;;;;14.06;100.00;101345.78;1048560;28;20056;-78
2021/08/10 02:11:34;;;;;;;13.48;7.88;;;;;;;14.05;100.00;101344.03;1049647;28;20056;-79
2021/08/10 02:12:07;;;;;;;10.07;7.57;;;;;;;14.06;100.00;101348.38;1049826;28;20048;-78
2021/08/10 02:12:40;;;;;;;9.95;7.68;;;;;;;14.04;100.00;101344.03;1053740;28;20047;-79
2021/08/10 02:13:12;;;;;;;11.80;7.82;;;;;;;14.02;100.00;101353.56;1052668;28;20535;-78
2021/08/10 02:13:45;;;;;;;10.55;7.45;;;;;;;14.05;100.00;101358.78;1057979;27;20204;-78
2021/08/10 02:14:23;;;;;;;9.98;7.13;;;;;;;14.06;100.00;101358.78;1056985;28;20051;-80
2021/08/10 02:14:57;;;;;;;11.27;8.07;;;;;;;14.04;100.00;101355.31;1058599;27;20075;-78
2021/08/10 02:15:29;;;;;;;11.85;8.95;;;;;;;14.05;100.00;101348.38;1059270;27;20084;-78
2021/08/10 02:16:02;;;;;;;7.88;7.07;;;;;;;14.03;100.00;101352.72;1052532;28;20523;-78
2021/08/10 02:16:33;;;;;;;12.32;7.75;;;;;;;14.05;100.00;101345.78;1049447;28;20060;-78
2021/08/10 02:17:07;;;;;;;23.77;8.68;;;;;;;14.04;100.00;101346.63;1048576;28;20056;-78
2021/08/10 02:17:39;;;;;;;11.82;7.28;;;;;;;14.04;100.00;101346.63;1045253;28;20061;-79
2021/08/10 02:18:10;;;;;;;14.35;8.55;;;;;;;14.10;100.00;101341.47;1049141;28;20416;-78
2021/08/10 02:18:42;;;;;;;10.60;7.85;;;;;;;14.05;100.00;101344.03;1049190;28;20500;-78
2021/08/10 02:19:13;;;;;;;12.02;7.72;;;;;;;14.05;100.00;101343.16;1048474;28;20055;-78
2021/08/10 02:19:45;;;;;;;10.35;7.80;;;;;;;14.01;100.00;101334.50;1048474;28;20048;-79
2021/08/10 02:20:17;;;;;;;13.80;7.95;;;;;;;14.01;100.00;101344.91;1044861;28;20064;-79
2021/08/10 02:20:48;;;;;;;9.80;6.78;;;;;;;13.97;100.00;101342.25;1048197;28;20056;-79
2021/08/10 02:21:40;;;;;;;14.15;8.18;;;;;;;14.00;100.00;101337.06;1052600;28;20419;-79
2021/08/10 02:22:15;;;;;;;10.02;7.93;;;;;;;13.96;100.00;101325.78;1052547;28;20078;-79
2021/08/10 02:22:48;;;;;;;10.98;7.60;;;;;;;13.98;100.00;101338.78;1056441;28;20055;-78
2021/08/10 02:23:24;;;;;;;9.90;8.05;;;;;;;13.95;100.00;101337.00;1056602;28;20062;-78
2021/08/10 02:24:03;;;;;;;12.05;8.05;;;;;;;13.96;100.00;101340.50;1056756;28;20427;-78
2021/08/10 02:24:40;;;;;;;12.02;9.07;;;;;;;13.98;100.00;101346.59;1052771;28;20048;-79
2021/08/10 02:25:14;;;;;;;8.55;7.07;;;;;;;14.00;100.00;101345.72;1051493;28;20487;-79
2021/08/10 02:25:47;;;;;;;10.38;8.07;;;;;;;14.01;100.00;101336.19;1047161;28;20056;-80
2021/08/10 02:26:19;;;;;;;11.57;7.60;;;;;;;13.98;100.00;101346.59;1045886;28;20044;-78
2021/08/10 02:27:14;;;;;;;8.27;7.25;;;;;;;13.99;100.00;101336.19;1045501;28;20072;-79
2021/08/10 02:27:51;;;;;;;10.77;8.13;;;;;;;13.95;100.00;101334.41;1048356;28;20045;-78
2021/08/10 02:28:24;;;;;;;10.95;7.88;;;;;;;13.95;100.00;101331.81;1048476;28;20505;-78
2021/08/10 02:28:56;;;;;;;15.90;8.63;;;;;;;13.97;100.00;101334.44;1056245;28;20047;-78
2021/08/10 02:29:38;;;;;;;9.50;7.93;;;;;;;13.98;100.00;101337.06;1054030;28;20059;-78
2021/08/10 02:30:12;;;;;;;11.70;7.93;;;;;;;13.98;100.00;101334.44;1056855;28;20070;-78
2021/08/10 02:30:49;;;;;;;8.68;7.65;;;;;;;13.96;100.00;101337.91;1056438;28;20047;-78
2021/08/10 02:31:23;;;;;;;9.57;7.20;;;;;;;13.96;100.00;101343.97;1052651;28;20052;-78
2021/08/10 02:31:55;;;;;;;10.52;7.85;;;;;;;13.94;100.00;101337.88;1054476;28;20174;-78
2021/08/10 02:32:29;;;;;;;12.10;7.95;;;;;;;13.96;100.00;101341.38;1056898;28;20050;-78
2021/08/10 02:33:07;;;;;;;13.23;8.20;;;;;;;13.93;100.00;101343.94;1053914;28;20059;-79
2021/08/10 02:33:39;;;;;;;10.15;8.63;;;;;;;13.96;100.00;101346.59;1056938;28;20051;-78
2021/08/10 02:34:13;;;;;;;14.20;9.25;;;;;;;13.92;100.00;101344.81;1056903;28;20043;-77
2021/08/10 02:34:45;;;;;;;9.30;7.20;;;;;;;13.94;100.00;101348.28;1052684;28;20051;-78
2021/08/10 02:35:23;;;;;;;11.80;8.30;;;;;;;13.93;100.00;101345.66;1053594;28;20122;-78
2021/08/10 02:36:00;;;;;;;11.82;8.57;;;;;;;13.93;100.00;101351.75;1052552;28;20127;-78
2021/08/10 02:36:33;;;;;;;11.13;8.52;;;;;;;13.94;100.00;101352.59;1052577;28;20109;-79